• Join FlightAware (Why Join?)
  • Login
  • US Flag GB Flag 
03:09 EDT


 

Airport Tracker/Info


-or-


 

Live Flight TrackerFlight Track Log ✈ SWA2624 ✈ 18-Apr-2013 ✈ KBWI - KABQ

Flight Track Log - Related Links

Times and Time Zones

All times are in EDT time to prevent confusion due to time zone crossing. See the SWA2624 flight status page for this flight to view local times or setup timezone preferences in your user account.

Time Position Orientation Groundspeed Altitude Reporting Facility
EDT Latitude Longitude Course Direction KTS MPH feet Rate Location/Type
19:53 39.1167 -76.6667 303° West 189 217 2,300  Level Potomac TRACON
19:54 39.1500 -76.7333 303° West 240 276 5,000 2,340 Climbing Potomac TRACON
19:55 39.1833 -76.8167 297° West 262 302 7,000 2,340 Climbing Potomac TRACON
19:57 39.2117 -76.9819 283° West 264 304 11,600 2,280 Climbing Washington Center
19:58 39.2125 -77.1025 271° West 297 342 13,500 2,280 Climbing Washington Center
19:59 39.1589 -77.2003 235° Southwest 296 341 16,200 2,580 Climbing Washington Center
20:00 39.0850 -77.2842 221° Southwest 315 362 18,700 2,400 Climbing Washington Center
20:01 39.0517 -77.4144 252° West 344 396 21,100 2,100 Climbing Washington Center
20:02 39.0228 -77.5339 253° West 382 440 23,000 1,860 Climbing Washington Center
20:03 38.9847 -77.6881 252° West 400 460 24,900 1,740 Climbing Washington Center
20:04 38.9533 -77.8153 252° West 411 473 26,500 1,440 Climbing Washington Center
20:05 38.9172 -77.9633 253° West 435 501 27,800 1,440 Climbing Washington Center
20:06 38.8786 -78.1117 252° West 442 509 29,400 1,740 Climbing Washington Center
20:07 38.8544 -78.2628 258° West 437 503 31,300 1,680 Climbing Washington Center
20:08 38.8531 -78.4200 269° West 431 496 32,800 1,380 Climbing Washington Center
20:09 38.8514 -78.5719 269° West 431 496 34,100 1,200 Climbing Washington Center
20:10 38.8497 -78.7264 269° West 431 496 35,300 900 Climbing Washington Center
20:11 38.8475 -78.8808 269° West 436 502 36,000 300 Climbing Washington Center
20:12 38.8453 -79.0353 269° West 436 502 36,000  Level Washington Center
20:13 38.8431 -79.1872 269° West 436 502 36,000  Level Washington Center
20:14 38.8425 -79.3417 270° West 441 507 36,000  Level Washington Center
20:15 38.8397 -79.4936 269° West 436 502 36,000  Level Washington Center
20:16 38.8344 -79.6506 268° West 437 503 36,000  Level Washington Center
20:17 38.8308 -79.8128 268° West 437 503 36,000  Level Washington Center
20:18 38.8256 -79.9619 267° West 431 496 36,000  Level Washington Center
20:20 38.8167 -80.1983 267° West 412 474 36,000  Level Indianapolis Center
20:21 38.8125 -80.3447 268° West 411 473 36,000  Level Indianapolis Center
20:22 38.8092 -80.4906 268° West 409 471 36,000  Level Indianapolis Center
20:23 38.8058 -80.6394 268° West 416 479 36,000  Level Indianapolis Center
20:24 38.8000 -80.7847 267° West 409 471 36,000 180 Level Indianapolis Center
20:25 38.7958 -80.9306 268° West 410 472 36,400 900 Climbing Indianapolis Center
20:26 38.7911 -81.0736 268° West 402 463 37,900 780 Climbing Indianapolis Center
20:27 38.7853 -81.2419 268° West 397 457 38,000  Climbing Indianapolis Center
20:28 38.7814 -81.3822 268° West 398 458 38,000  Level Indianapolis Center
20:29 38.7742 -81.5331 267° West 408 470 38,000  Level Indianapolis Center
20:30 38.7683 -81.6761 267° West 404 465 38,000  Level Indianapolis Center
20:31 38.7644 -81.8072 268° West 407 468 38,000  Level Indianapolis Center
20:32 38.7572 -81.9772 267° West 402 463 38,000  Level Indianapolis Center
20:33 38.7511 -82.1156 267° West 394 453 38,000  Level Indianapolis Center
20:34 38.7458 -82.2514 267° West 384 442 38,000  Level Indianapolis Center
20:35 38.7411 -82.3889 268° West 386 444 38,000  Level Indianapolis Center
20:36 38.7358 -82.5239 267° West 381 438 38,000  Level Indianapolis Center
20:37 38.7294 -82.6611 267° West 386 444 38,000  Level Indianapolis Center
20:38 38.7236 -82.7978 267° West 386 444 38,000  Level Indianapolis Center
20:39 38.7175 -82.9369 267° West 389 448 38,000  Level Indianapolis Center
20:40 38.7122 -83.0750 267° West 388 447 38,000  Level Indianapolis Center
20:41 38.7047 -83.2267 266° West 391 450 38,000 -60 Level Indianapolis Center
20:42 38.6978 -83.3667 266° West 390 449 37,900 -60 Descending Indianapolis Center
20:43 38.6906 -83.5075 266° West 393 452 37,900  Level Indianapolis Center
20:44 38.6844 -83.6478 267° West 390 449 37,900  Level Indianapolis Center
20:45 38.6753 -83.8089 266° West 386 444 38,000  Climbing Indianapolis Center
20:46 38.6692 -83.9483 267° West 388 447 38,000  Level Indianapolis Center
20:47 38.6617 -84.0847 266° West 383 441 38,000  Level Indianapolis Center
20:48 38.6536 -84.2200 266° West 379 436 38,000  Level Indianapolis Center
20:49 38.6508 -84.3550 269° West 377 434 38,000  Level Indianapolis Center
20:50 38.6597 -84.4939 275° West 385 443 38,000  Level Indianapolis Center
20:51 38.6681 -84.6328 274° West 378 435 38,000  Level Indianapolis Center
20:52 38.6747 -84.7678 274° West 377 434 38,000  Level Indianapolis Center
20:53 38.6839 -84.9092 275° West 382 440 38,000  Level Indianapolis Center
20:54 38.6903 -85.0464 273° West 384 442 38,000  Level Indianapolis Center
20:55 38.6967 -85.1825 273° West 383 441 38,000  Level Indianapolis Center
20:56 38.7053 -85.3186 275° West 384 442 38,000  Level Indianapolis Center
20:58 38.7125 -85.4525 274° West 376 433 38,000  Level Indianapolis Center
20:59 38.7183 -85.5850 273° West 372 428 38,000  Level Indianapolis Center
21:00 38.7256 -85.7161 274° West 369 425 38,000  Level Indianapolis Center
21:01 38.7319 -85.8494 274° West 374 430 38,000  Level Indianapolis Center
21:02 38.7383 -85.9808 274° West 369 425 38,000  Level Indianapolis Center
21:03 38.7447 -86.1111 274° West 368 423 38,000  Level Indianapolis Center
21:04 38.7514 -86.2667 273° West 364 419 38,000  Level Indianapolis Center
21:05 38.7572 -86.3964 273° West 364 419 38,000  Level Indianapolis Center
21:06 38.7628 -86.5247 273° West 362 417 38,000  Level Indianapolis Center
21:07 38.7675 -86.6544 273° West 364 419 38,000  Level Indianapolis Center
21:08 38.7733 -86.7842 273° West 366 421 38,000  Level Indianapolis Center
21:09 38.7783 -86.9156 273° West 368 423 38,000  Level Indianapolis Center
21:10 38.7831 -87.0469 273° West 370 426 38,000  Level Indianapolis Center
21:11 38.7883 -87.1781 273° West 370 426 38,000  Level Indianapolis Center
21:12 38.7931 -87.3078 273° West 366 421 38,000  Level Indianapolis Center
21:13 38.7972 -87.4381 272° West 366 421 38,000  Level Indianapolis Center
21:14 38.8014 -87.5678 272° West 364 419 38,000  Level Indianapolis Center
21:15 38.8061 -87.7239 272° West 365 420 38,000  Level Indianapolis Center
21:16 38.8100 -87.8547 272° West 365 420 38,000  Level Indianapolis Center
21:17 38.8133 -87.9336 273° West 365 420 38,000  Level Kansas City Center
21:18 38.8167 -88.0642 272° West 365 420 38,000  Level Kansas City Center
21:19 38.8194 -88.1950 272° West 365 420 38,000  Level Kansas City Center
21:20 38.8242 -88.3528 272° West 368 423 38,000  Level Kansas City Center
21:21 38.8258 -88.4867 271° West 373 429 38,000  Level Kansas City Center
21:22 38.8306 -88.6194 273° West 372 428 38,000  Level Kansas City Center
21:23 38.8328 -88.7456 271° West 371 427 38,000  Level Kansas City Center
21:24 38.8372 -88.8764 273° West 371 427 38,000  Level Kansas City Center
21:25 38.8392 -89.0217 271° West 370 426 38,000  Level Kansas City Center
21:26 38.8431 -89.1633 272° West 370 426 38,000  Level Kansas City Center
21:27 38.8447 -89.2944 271° West 369 425 38,000  Level Kansas City Center
21:28 38.8472 -89.4264 271° West 371 427 38,000  Level Kansas City Center
21:29 38.8497 -89.5672 271° West 369 425 38,000  Level Kansas City Center
21:30 38.8519 -89.6903 271° West 369 425 38,000  Level Kansas City Center
21:31 38.8531 -89.8217 271° West 370 426 38,000  Level Kansas City Center
21:32 38.8556 -89.9531 271° West 371 427 38,000  Level Kansas City Center
21:33 38.8581 -90.0831 271° West 368 423 38,000  Level Kansas City Center
21:34 38.8575 -90.2167 270° West 371 427 38,000  Level Kansas City Center
21:35 38.8636 -90.3811 273° West 379 436 38,000  Level Kansas City Center
21:36 38.8603 -90.5158 268° West 379 436 38,000  Level Kansas City Center
21:37 38.8397 -90.6436 258° West 364 419 38,000  Level Kansas City Center
21:38 38.8253 -90.7617 261° West 366 421 38,000  Level Kansas City Center
21:39 38.8081 -90.8903 260° West 368 423 38,000  Level Kansas City Center
21:40 38.7917 -91.0203 261° West 370 426 38,000  Level Kansas City Center
21:41 38.7711 -91.1767 260° West 372 428 38,000  Level Kansas City Center
21:42 38.7539 -91.3083 261° West 374 430 38,000  Level Kansas City Center
21:43 38.7356 -91.4394 260° West 376 433 38,000  Level Kansas City Center
21:44 38.7175 -91.5725 260° West 379 436 38,000  Level Kansas City Center
21:45 38.6964 -91.7222 260° West 379 436 38,000  Level Kansas City Center
21:46 38.6783 -91.8553 260° West 380 437 38,000  Level Kansas City Center
21:47 38.6589 -91.9836 259° West 372 428 38,000  Level Kansas City Center
21:48 38.6403 -92.1119 260° West 368 423 38,000  Level Kansas City Center
21:49 38.6211 -92.2411 259° West 368 423 38,000  Level Kansas City Center
21:50 38.6022 -92.3683 259° West 367 422 38,000  Level Kansas City Center
21:51 38.5839 -92.4936 259° West 361 415 38,000  Level Kansas City Center
21:53 38.5647 -92.6200 259° West 362 417 38,000  Level Kansas City Center
21:54 38.5458 -92.7478 259° West 364 419 38,000  Level Kansas City Center
21:55 38.5231 -92.8997 259° West 364 419 38,000  Level Kansas City Center
21:56 38.5047 -93.0253 259° West 362 417 38,000  Level Kansas City Center
21:57 38.4850 -93.1506 259° West 360 414 38,000  Level Kansas City Center
21:58 38.4664 -93.2767 259° West 361 415 38,000  Level Kansas City Center
21:59 38.4469 -93.4022 259° West 361 415 38,000  Level Kansas City Center
22:00 38.4272 -93.5283 259° West 362 417 38,000  Level Kansas City Center
22:01 38.4072 -93.6556 259° West 364 419 38,000  Level Kansas City Center
22:02 38.3881 -93.7814 259° West 362 417 38,000  Level Kansas City Center
22:03 38.3664 -93.9075 258° West 364 419 38,000  Level Kansas City Center
22:04 38.3469 -94.0331 259° West 362 417 38,000  Level Kansas City Center
22:05 38.3253 -94.1667 258° West 363 418 38,000  Level Kansas City Center
22:06 38.3031 -94.3058 259° West 361 415 38,000  Level Kansas City Center
22:07 38.2822 -94.4264 258° West 361 415 38,000  Level Kansas City Center
22:08 38.2625 -94.5478 258° West 363 418 38,000  Level Kansas City Center
22:09 38.2406 -94.6900 259° West 365 420 38,000  Level Kansas City Center
22:10 38.2214 -94.8147 259° West 368 423 38,000  Level Kansas City Center
22:11 38.2006 -94.9403 258° West 373 429 38,000  Level Kansas City Center
22:12 38.1778 -95.0861 259° West 376 433 38,000  Level Kansas City Center
22:13 38.1572 -95.2119 258° West 377 434 38,000  Level Kansas City Center
22:14 38.1328 -95.3547 258° West 372 428 38,000  Level Kansas City Center
22:15 38.1114 -95.4789 258° West 374 430 38,000  Level Kansas City Center
22:16 38.0900 -95.6025 258° West 374 430 38,000  Level Kansas City Center
22:17 38.0658 -95.7447 258° West 370 426 38,000  Level Kansas City Center
22:18 38.0436 -95.8667 257° West 369 425 38,000  Level Kansas City Center
22:19 38.0239 -95.9878 258° West 367 422 38,000  Level Kansas City Center
22:20 38.0017 -96.1233 258° West 370 426 38,000  Level Kansas City Center
22:21 37.9803 -96.2531 258° West 376 433 38,000  Level Kansas City Center
22:22 37.9592 -96.3819 258° West 374 430 38,000  Level Kansas City Center
22:23 37.9364 -96.5092 257° West 373 429 38,000  Level Kansas City Center
22:24 37.9150 -96.6383 258° West 374 430 38,000  Level Kansas City Center
22:25 37.8936 -96.7681 258° West 375 432 38,000  Level Kansas City Center
22:26 37.8717 -96.8964 258° West 373 429 38,000  Level Kansas City Center
22:27 37.8431 -97.0519 257° West 377 434 38,000  Level Kansas City Center
22:28 37.8192 -97.1839 257° West 384 442 38,000  Level Kansas City Center
22:29 37.7950 -97.3175 257° West 388 447 38,000  Level Kansas City Center
22:30 37.7703 -97.4508 257° West 389 448 38,000  Level Kansas City Center
22:31 37.7433 -97.5931 257° West 391 450 38,000  Level Kansas City Center
22:32 37.7186 -97.7258 257° West 388 447 38,000  Level Kansas City Center
22:33 37.6936 -97.8597 257° West 390 449 38,000  Level Kansas City Center
22:34 37.6681 -97.9917 256° West 388 447 38,000  Level Kansas City Center
22:35 37.6406 -98.1264 256° West 389 448 38,000  Level Kansas City Center
22:36 37.6164 -98.2528 256° West 386 444 38,000  Level Kansas City Center
22:37 37.5900 -98.3858 256° West 388 447 38,000  Level Kansas City Center
22:38 37.5633 -98.5189 256° West 390 449 38,000  Level Kansas City Center
22:39 37.5369 -98.6519 256° West 390 449 38,000  Level Kansas City Center
22:40 37.5094 -98.7856 255° West 392 451 38,000  Level Kansas City Center
22:41 37.4822 -98.9206 256° West 395 455 38,000  Level Kansas City Center
22:42 37.4489 -99.0828 256° West 397 457 38,000  Level Kansas City Center
22:44 37.4206 -99.2175 255° West 398 458 38,000  Level Kansas City Center
22:45 37.3933 -99.3519 256° West 398 458 38,000  Level Kansas City Center
22:46 37.3631 -99.4906 255° West 403 464 38,000  Level Kansas City Center
22:47 37.3361 -99.6214 256° West 404 465 38,000  Level Kansas City Center
22:48 37.3031 -99.7750 255° West 406 467 38,000  Level Kansas City Center
22:49 37.2553 -99.8992 244° Southwest 408 470 38,000  Level Kansas City Center
22:50 37.2056 -100.0242 243° Southwest 414 476 38,000  Level Kansas City Center
22:51 37.1464 -100.1681 243° Southwest 415 478 38,000  Level Kansas City Center
22:52 37.0964 -100.2892 243° Southwest 411 473 38,000  Level Kansas City Center
22:53 37.0375 -100.4308 243° Southwest 409 471 38,000  Level Kansas City Center
22:54 36.9858 -100.5525 242° Southwest 410 472 38,000  Level Kansas City Center
22:55 36.9347 -100.6736 242° Southwest 411 473 38,000  Level Kansas City Center
22:56 36.8750 -100.8139 242° Southwest 409 471 38,000  Level Kansas City Center
22:57 36.8364 -100.9417 249° West 414 476 38,000  Level Kansas City Center
22:58 36.8064 -101.0719 254° West 410 472 38,000  Level Kansas City Center
22:59 36.7714 -101.2250 254° West 410 472 38,000  Level Kansas City Center
23:00 36.7422 -101.3533 254° West 405 466 38,000  Level Kansas City Center
23:01 36.7181 -101.4606 254° West 405 466 38,000  Level Albuquerque Center
23:02 36.6828 -101.6083 253° West 401 461 38,000  Level Albuquerque Center
23:03 36.6522 -101.7353 253° West 399 459 38,000  Level Albuquerque Center
23:04 36.6228 -101.8636 254° West 402 463 38,000  Level Albuquerque Center
23:05 36.5894 -102.0061 254° West 403 464 38,000  Level Albuquerque Center
23:06 36.5569 -102.1394 253° West 404 465 38,000  Level Albuquerque Center
23:07 36.5250 -102.2703 253° West 401 461 38,000  Level Albuquerque Center
23:08 36.4931 -102.4039 253° West 403 464 38,000  Level Albuquerque Center
23:09 36.4550 -102.5633 254° West 404 465 38,000  Level Albuquerque Center
23:10 36.4219 -102.6975 253° West 406 467 38,000  Level Albuquerque Center
23:11 36.3889 -102.8297 253° West 405 466 38,000  Level Albuquerque Center
23:12 36.3561 -102.9675 254° West 401 461 38,000  Level Albuquerque Center
23:13 36.3231 -103.1003 253° West 399 459 38,000  Level Albuquerque Center
23:14 36.2903 -103.2317 253° West 398 458 38,000  Level Albuquerque Center
23:15 36.2583 -103.3661 254° West 401 461 38,000  Level Albuquerque Center
23:16 36.2256 -103.4986 253° West 400 460 38,000  Level Albuquerque Center
23:17 36.1919 -103.6297 252° West 398 458 38,000  Level Albuquerque Center
23:18 36.1586 -103.7633 253° West 401 461 38,000  Level Albuquerque Center
23:19 36.1233 -103.8953 252° West 403 464 38,000  Level Albuquerque Center
23:20 36.0822 -104.0497 252° West 403 464 38,000  Level Albuquerque Center
23:21 36.0492 -104.1836 253° West 405 466 38,000  Level Albuquerque Center
23:22 36.0136 -104.3178 252° West 408 470 38,000  Level Albuquerque Center
23:23 35.9783 -104.4531 252° West 411 473 38,000  Level Albuquerque Center
23:24 35.9442 -104.5864 252° West 409 471 38,000  Level Albuquerque Center
23:25 35.9094 -104.7192 252° West 405 466 38,000  Level Albuquerque Center
23:26 35.8719 -104.8558 251° West 414 476 38,000  Level Albuquerque Center
23:27 35.8367 -104.9903 252° West 414 476 38,000  Level Albuquerque Center
23:28 35.8003 -105.1236 251° West 411 473 38,000  Level Albuquerque Center
23:29 35.7600 -105.2778 252° West 406 467 38,000 -1,320 Level Albuquerque Center
23:30 35.7222 -105.4086 250° West 404 465 35,400 -2,580 Descending Albuquerque Center
23:31 35.6914 -105.5422 254° West 404 465 32,800 -2,280 Descending Albuquerque Center
23:32 35.6844 -105.6564 266° West 392 451 30,800 -2,040 Descending Albuquerque Center
23:33 35.6725 -105.7828 263° West 377 434 28,700 -2,340 Descending Albuquerque Center
23:34 35.6592 -105.9344 264° West 373 429 26,100 -2,340 Descending Albuquerque Center
23:35 35.6450 -106.0644 262° West 382 440 24,000 -2,100 Descending Albuquerque Center
23:37 35.6328 -106.1928 263° West 381 438 21,900 -2,040 Descending Albuquerque Center
23:38 35.6211 -106.3178 263° West 373 429 19,900 -1,920 Descending Albuquerque Center
23:39 35.6089 -106.4336 263° West 352 405 18,000 -1,860 Descending Albuquerque Center
23:40 35.5969 -106.5469 263° West 341 392 16,200 -2,100 Descending Albuquerque Center
23:40 35.5581 -106.5942 225° Southwest 355 409 15,100 -1,980 Descending Albuquerque Center
23:41 35.5097 -106.6222 205° Southwest 372 428 14,300 -1,500 Descending Albuquerque Center
23:42 35.4181 -106.6722 204° Southwest 331 381 12,700 -1,620 Descending Albuquerque Center
23:43 35.3400 -106.7131 203° Southwest 298 343 11,100 -1,440 Descending Albuquerque Center
23:44 35.2661 -106.6933 168° South 296 341 9,900 -1,080 Descending Albuquerque Center
23:44 35.2383 -106.6328 119° Southeast 255 293 9,200 -840 Descending Albuquerque Center
23:45 35.2292 -106.6125 119° Southeast 280 322 9,000 -120 Descending Albuquerque Center
23:45 35.1933 -106.5819 145° Southeast 209 241 9,100  Climbing Albuquerque Center
23:46 35.1800 -106.5728 151° Southeast 236 272 9,000 -840 Descending Albuquerque Center
23:46 35.1361 -106.5475 155° Southeast 208 239 8,300 -1,020 Descending Albuquerque Center
23:47 35.1264 -106.5378 141° Southeast 222 255 8,000 -1,140 Descending Albuquerque Center
23:47 35.0856 -106.5139 154° Southeast 204 235 7,200 -1,080 Descending Albuquerque Center
23:48 35.0753 -106.5058 147° Southeast 214 246 6,900 -900 Descending Albuquerque Center
23:48 35.0450 -106.5269 210° Southwest 152 175 6,300 -900 Descending Albuquerque Center
23:49 35.0439 -106.5339 259° West 175 201 6,000 -840 Descending Albuquerque Center
23:49 35.0428 -106.5744 268° West 132 152 5,500 -780 Descending Albuquerque Center
23:50 35.0439 -106.5819 280° West 152 175 5,200 -840 Descending Albuquerque Center